createdAt,value
2016-12-07T00:00:10.465Z,51.46
2016-12-07T00:00:38.172Z,51.85
2016-12-07T00:01:05.859Z,50.98
2016-12-07T00:01:33.584Z,51.27
2016-12-07T00:02:01.329Z,51.37
2016-12-07T00:02:29.141Z,51.27
2016-12-07T00:02:56.837Z,51.07
2016-12-07T00:03:24.647Z,51.37
2016-12-07T00:03:52.331Z,50.4
2016-12-07T00:04:20.034Z,50.21
2016-12-07T00:04:47.811Z,49.73
2016-12-07T00:05:15.501Z,49.92
2016-12-07T00:05:43.217Z,49.82
2016-12-07T00:06:10.897Z,49.82
2016-12-07T00:06:38.602Z,49.92
2016-12-07T00:07:06.348Z,50.21
2016-12-07T00:07:34.049Z,49.73
2016-12-07T00:08:01.718Z,49.82
2016-12-07T00:08:29.429Z,49.73
2016-12-07T00:08:57.194Z,49.82
2016-12-07T00:09:24.900Z,49.73
2016-12-07T00:09:52.814Z,49.63
2016-12-07T00:10:20.785Z,50.59
2016-12-07T00:10:48.488Z,51.17
2016-12-07T00:11:16.184Z,51.17
2016-12-07T00:11:43.875Z,51.17
2016-12-07T00:12:11.667Z,50.89
2016-12-07T00:12:39.464Z,50.98
2016-12-07T00:13:07.175Z,50.5
2016-12-07T00:13:35.038Z,50.4
2016-12-07T00:14:02.755Z,50.5
2016-12-07T00:14:30.545Z,50.79
2016-12-07T00:14:58.230Z,50.86
2016-12-07T00:15:25.904Z,50.86
2016-12-07T00:15:53.597Z,50.38
2016-12-07T00:16:21.430Z,50.86
2016-12-07T00:16:49.241Z,50.67
2016-12-07T00:17:17.035Z,50.47
2016-12-07T00:17:44.758Z,50.86
2016-12-07T00:18:12.768Z,50.38
2016-12-07T00:18:40.478Z,50.57
2016-12-07T00:19:08.166Z,50.47
2016-12-07T00:19:35.848Z,50.76
2016-12-07T00:20:03.533Z,50.47
2016-12-07T00:20:31.228Z,50.38
2016-12-07T00:20:58.963Z,50.57
2016-12-07T00:21:26.658Z,51.15
2016-12-07T00:21:54.374Z,51.25
2016-12-07T00:22:22.074Z,51.15
2016-12-07T00:22:49.829Z,51.53
2016-12-07T00:23:17.669Z,52.31
2016-12-07T00:23:45.666Z,52.4
2016-12-07T00:24:13.455Z,52.31
2016-12-07T00:24:41.256Z,52.89
2016-12-07T00:25:08.951Z,53.08
2016-12-07T00:25:36.727Z,52.5
2016-12-07T00:26:04.510Z,52.31
2016-12-07T00:26:32.198Z,52.59
2016-12-07T00:27:00.013Z,52.11
2016-12-07T00:27:27.783Z,52.21
2016-12-07T00:27:55.722Z,52.69
2016-12-07T00:28:23.513Z,51.92
2016-12-07T00:28:51.205Z,51.82
2016-12-07T00:29:18.918Z,51.44
2016-12-07T00:29:46.643Z,51.73
2016-12-07T00:30:14.363Z,51.34
2016-12-07T00:30:42.050Z,51.15
2016-12-07T00:31:09.834Z,51.15
2016-12-07T00:31:37.538Z,51.15
2016-12-07T00:32:05.218Z,51.15
2016-12-07T00:32:32.995Z,51.34
2016-12-07T00:33:00.696Z,51.34
2016-12-07T00:33:28.366Z,51.05
2016-12-07T00:33:56.023Z,51.34
2016-12-07T00:34:23.713Z,52.31
2016-12-07T00:34:51.485Z,52.31
2016-12-07T00:35:19.173Z,52.21
2016-12-07T00:35:46.994Z,52.21
2016-12-07T00:36:14.777Z,51.92
2016-12-07T00:36:42.481Z,51.73
2016-12-07T00:37:10.207Z,51.34
2016-12-07T00:37:37.892Z,51.25
2016-12-07T00:38:05.876Z,51.25
2016-12-07T00:38:33.547Z,51.92
2016-12-07T00:39:01.235Z,52.01
2016-12-07T00:39:28.921Z,52.31
2016-12-07T00:39:56.633Z,52.79
2016-12-07T00:40:24.315Z,52.79
2016-12-07T00:40:52.005Z,52.89
2016-12-07T00:41:19.714Z,52.21
2016-12-07T00:41:47.396Z,52.5
2016-12-07T00:42:15.096Z,52.4
2016-12-07T00:42:42.787Z,52.4
2016-12-07T00:43:10.520Z,52.11
2016-12-07T00:43:38.348Z,51.89
2016-12-07T00:44:06.059Z,52.21
2016-12-07T00:44:33.979Z,52.01
2016-12-07T00:45:01.656Z,52.11
2016-12-07T00:45:29.369Z,52.89
2016-12-07T00:45:57.052Z,53.95
2016-12-07T00:46:24.756Z,53.27
2016-12-07T00:46:52.442Z,52.89
2016-12-07T00:47:20.131Z,52.89
2016-12-07T00:47:47.914Z,52.89
2016-12-07T00:48:15.771Z,52.4
2016-12-07T00:48:43.475Z,52.4
2016-12-07T00:49:11.164Z,52.21
2016-12-07T00:49:38.843Z,52.4
2016-12-07T00:50:06.569Z,52.11
2016-12-07T00:50:34.257Z,51.73
2016-12-07T00:51:01.946Z,51.53
2016-12-07T00:51:29.634Z,51.82
2016-12-07T00:51:57.415Z,51.82
2016-12-07T00:52:25.104Z,51.73
2016-12-07T00:52:52.814Z,51.25
2016-12-07T00:53:20.497Z,51.44
2016-12-07T00:53:48.182Z,51.53
2016-12-07T00:54:15.866Z,51.05
2016-12-07T00:54:43.547Z,50.96
2016-12-07T00:55:11.258Z,50.96
2016-12-07T00:55:39.044Z,50.96
2016-12-07T00:56:06.754Z,50.76
2016-12-07T00:56:34.461Z,50.57
2016-12-07T00:57:02.241Z,50.38
2016-12-07T00:57:30.056Z,50.57
2016-12-07T00:57:57.749Z,50.89
2016-12-07T00:58:25.476Z,50.59
2016-12-07T00:58:53.165Z,50.31
2016-12-07T00:59:20.875Z,50.5
2016-12-07T00:59:48.565Z,49.82
2016-12-07T01:00:16.351Z,50.01
2016-12-07T01:00:44.143Z,49.92
2016-12-07T01:01:11.934Z,49.73
2016-12-07T01:01:39.603Z,50.18
2016-12-07T01:02:07.317Z,49.73
2016-12-07T01:02:34.993Z,49.99
2016-12-07T01:03:02.702Z,50.28
2016-12-07T01:03:30.389Z,50.38
2016-12-07T01:03:58.092Z,50.67
2016-12-07T01:04:25.811Z,50.5
2016-12-07T01:04:53.524Z,50.5
2016-12-07T01:05:21.182Z,50.89
2016-12-07T01:05:48.868Z,50.86
2016-12-07T01:06:16.557Z,50.79
2016-12-07T01:06:44.459Z,51.34
2016-12-07T01:07:12.260Z,51.37
2016-12-07T01:07:39.935Z,51.73
2016-12-07T01:08:07.611Z,52.4
2016-12-07T01:08:35.300Z,52.89
2016-12-07T01:09:02.998Z,53.37
2016-12-07T01:09:30.733Z,53.47
2016-12-07T01:09:58.416Z,53.56
2016-12-07T01:10:26.124Z,54.05
2016-12-07T01:10:53.835Z,53.85
2016-12-07T01:11:21.521Z,54.05
2016-12-07T01:11:49.183Z,54.33
2016-12-07T01:12:16.865Z,54.24
2016-12-07T01:12:44.655Z,54.24
2016-12-07T01:13:12.389Z,54.53
2016-12-07T01:13:40.161Z,54.33
2016-12-07T01:14:07.831Z,54.33
2016-12-07T01:14:35.621Z,54.62
2016-12-07T01:15:03.321Z,54.62
2016-12-07T01:15:31.014Z,55.1
2016-12-07T01:15:58.814Z,55.1
2016-12-07T01:16:26.484Z,54.72
2016-12-07T01:16:54.194Z,55.1
2016-12-07T01:17:21.903Z,55.1
2016-12-07T01:17:49.603Z,55.01
2016-12-07T01:18:17.383Z,54.53
2016-12-07T01:18:45.176Z,54.91
2016-12-07T01:19:12.883Z,54.72
2016-12-07T01:19:40.577Z,54.62
2016-12-07T01:20:08.338Z,54.72
2016-12-07T01:20:36.004Z,55.2
2016-12-07T01:21:03.729Z,55.1
2016-12-07T01:21:31.427Z,55.1
2016-12-07T01:21:59.202Z,55.2
2016-12-07T01:22:26.895Z,55.01
2016-12-07T01:22:54.694Z,55.01
2016-12-07T01:23:22.395Z,55.01
2016-12-07T01:23:50.203Z,54.91
2016-12-07T01:24:17.898Z,55.59
2016-12-07T01:24:45.565Z,55.2
2016-12-07T01:25:13.250Z,55.59
2016-12-07T01:25:40.947Z,55.59
2016-12-07T01:26:08.769Z,55.1
2016-12-07T01:26:36.448Z,55.1
2016-12-07T01:27:04.138Z,54.91
2016-12-07T01:27:31.840Z,55.59
2016-12-07T01:27:59.556Z,55.2
2016-12-07T01:28:27.255Z,55.2
2016-12-07T01:28:55.069Z,55.78
2016-12-07T01:29:22.781Z,55.4
2016-12-07T01:29:50.471Z,55.78
2016-12-07T01:30:18.367Z,55.98
2016-12-07T01:30:46.071Z,56.14
2016-12-07T01:31:13.764Z,56.04
2016-12-07T01:31:41.485Z,56.14
2016-12-07T01:32:09.170Z,56.04
2016-12-07T01:32:36.847Z,55.76
2016-12-07T01:33:04.536Z,55.88
2016-12-07T01:33:32.237Z,55.85
2016-12-07T01:33:59.964Z,55.98
2016-12-07T01:34:27.677Z,55.94
2016-12-07T01:34:55.357Z,55.68
2016-12-07T01:35:23.041Z,56.07
2016-12-07T01:35:50.748Z,56.16
2016-12-07T01:36:18.434Z,56.16
2016-12-07T01:36:46.119Z,55.78
2016-12-07T01:37:13.900Z,55.76
2016-12-07T01:37:41.593Z,56.16
2016-12-07T01:38:09.282Z,56.26
2016-12-07T01:38:36.953Z,56.65
2016-12-07T01:39:04.635Z,56.07
2016-12-07T01:39:32.305Z,56.26
2016-12-07T01:39:59.977Z,56.16
2016-12-07T01:40:27.783Z,55.98
2016-12-07T01:40:55.469Z,56.16
2016-12-07T01:41:23.163Z,55.88
2016-12-07T01:41:50.879Z,55.98
2016-12-07T01:42:18.567Z,55.3
2016-12-07T01:42:46.337Z,55.78
2016-12-07T01:43:14.212Z,56.36
2016-12-07T01:43:41.918Z,56.46
2016-12-07T01:44:09.598Z,56.52
2016-12-07T01:44:37.300Z,56.43
2016-12-07T01:45:05.096Z,56.65
2016-12-07T01:45:32.770Z,56.56
2016-12-07T01:46:00.555Z,56.56
2016-12-07T01:46:28.244Z,56.74
2016-12-07T01:46:55.947Z,56.46
2016-12-07T01:47:23.658Z,56.56
2016-12-07T01:47:51.494Z,56.74
2016-12-07T01:48:19.196Z,57.23
2016-12-07T01:48:46.873Z,56.84
2016-12-07T01:49:14.580Z,56.94
2016-12-07T01:49:42.374Z,56.94
2016-12-07T01:50:10.072Z,57.23
2016-12-07T01:50:37.841Z,57.52
2016-12-07T01:51:05.644Z,56.91
2016-12-07T01:51:33.359Z,56.94
2016-12-07T01:52:01.060Z,56.91
2016-12-07T01:52:28.760Z,57.39
2016-12-07T01:52:56.483Z,57.29
2016-12-07T01:53:24.191Z,57.2
2016-12-07T01:53:51.868Z,57.39
2016-12-07T01:54:19.531Z,57.68
2016-12-07T01:54:47.256Z,57.39
2016-12-07T01:55:14.955Z,57.68
2016-12-07T01:55:42.649Z,57.97
2016-12-07T01:56:10.351Z,57.97
2016-12-07T01:56:38.127Z,57.78
2016-12-07T01:57:05.903Z,58.26
2016-12-07T01:57:33.640Z,58.17
2016-12-07T01:58:01.380Z,58.26
2016-12-07T01:58:29.130Z,58.26
2016-12-07T01:58:56.799Z,57.87
2016-12-07T01:59:24.499Z,57.97
2016-12-07T01:59:52.215Z,58.26
2016-12-07T02:00:19.958Z,58.07
2016-12-07T02:00:47.673Z,58.17
2016-12-07T02:01:15.362Z,58.55
2016-12-07T02:01:43.039Z,58.45
2016-12-07T02:02:10.722Z,58.45
2016-12-07T02:02:38.526Z,58.45
2016-12-07T02:03:06.216Z,58.07
2016-12-07T02:03:33.895Z,58.17
2016-12-07T02:04:01.613Z,57.97
2016-12-07T02:04:29.406Z,58.26
2016-12-07T02:04:57.084Z,58.26
2016-12-07T02:05:24.778Z,58.36
2016-12-07T02:05:52.448Z,58.36
2016-12-07T02:06:20.178Z,57.87
2016-12-07T02:06:47.841Z,57.97
2016-12-07T02:07:15.526Z,57.59
2016-12-07T02:07:43.217Z,57.78
2016-12-07T02:08:10.920Z,57.87
2016-12-07T02:08:38.636Z,57.97
2016-12-07T02:09:06.340Z,58.33
2016-12-07T02:09:34.041Z,58.55
2016-12-07T02:10:01.728Z,58.55
2016-12-07T02:10:29.403Z,59.2
2016-12-07T02:10:57.113Z,58.72
2016-12-07T02:11:24.806Z,59.1
2016-12-07T02:11:52.459Z,58.91
2016-12-07T02:12:20.161Z,59
2016-12-07T02:12:47.859Z,59.58
2016-12-07T02:13:15.559Z,59.39
2016-12-07T02:13:43.261Z,59.2
2016-12-07T02:14:10.965Z,59.3
2016-12-07T02:14:38.666Z,59
2016-12-07T02:15:06.368Z,59.3
2016-12-07T02:15:34.147Z,59.48
2016-12-07T02:16:01.829Z,59.3
2016-12-07T02:16:29.558Z,59.2
2016-12-07T02:16:57.272Z,59.39
2016-12-07T02:17:25.033Z,59.58
2016-12-07T02:17:52.739Z,59.1
2016-12-07T02:18:20.490Z,59.39
2016-12-07T02:18:48.247Z,59.2
2016-12-07T02:19:15.936Z,59.1
2016-12-07T02:19:43.624Z,59.1
2016-12-07T02:20:11.414Z,58.91
2016-12-07T02:20:39.111Z,59.48
2016-12-07T02:21:06.827Z,59.58
2016-12-07T02:21:34.530Z,58.91
2016-12-07T02:22:02.312Z,59
2016-12-07T02:22:30.017Z,59.58
2016-12-07T02:22:57.793Z,59.48
2016-12-07T02:23:25.578Z,59.78
2016-12-07T02:23:53.276Z,59
2016-12-07T02:24:20.965Z,58.62
2016-12-07T02:24:48.665Z,59.2
2016-12-07T02:25:16.351Z,59.2
2016-12-07T02:25:44.071Z,59.03
2016-12-07T02:26:11.870Z,59.71
2016-12-07T02:26:39.544Z,59.1
2016-12-07T02:27:07.219Z,56.69
2016-12-07T02:27:34.884Z,56.33
2016-12-07T02:28:02.690Z,56.88
2016-12-07T02:28:30.384Z,56.98
2016-12-07T02:28:58.151Z,58.14
2016-12-07T02:29:25.859Z,58.17
2016-12-07T02:29:53.551Z,57.97
2016-12-07T02:30:21.245Z,58.17
2016-12-07T02:30:48.980Z,58.04
2016-12-07T02:31:16.797Z,58.65
2016-12-07T02:31:44.475Z,58.45
2016-12-07T02:32:12.127Z,58.45
2016-12-07T02:32:39.798Z,58.36
2016-12-07T02:33:07.507Z,58.36
2016-12-07T02:33:35.196Z,58.26
2016-12-07T02:34:03.005Z,58.36
2016-12-07T02:34:30.683Z,57.97
2016-12-07T02:34:58.386Z,58.26
2016-12-07T02:35:26.076Z,58.36
2016-12-07T02:35:53.770Z,58.45
2016-12-07T02:36:21.446Z,59.52
2016-12-07T02:36:49.174Z,58.45
2016-12-07T02:37:16.854Z,58.07
2016-12-07T02:37:44.550Z,58.26
2016-12-07T02:38:12.298Z,58.36
2016-12-07T02:38:40.077Z,57.85
2016-12-07T02:39:07.770Z,57.78
2016-12-07T02:39:35.493Z,57.75
2016-12-07T02:40:03.189Z,58.04
2016-12-07T02:40:30.857Z,57.94
2016-12-07T02:40:58.652Z,58.23
2016-12-07T02:41:26.321Z,58.42
2016-12-07T02:41:53.990Z,58.52
2016-12-07T02:42:21.671Z,58.42
2016-12-07T02:42:49.367Z,58.52
2016-12-07T02:43:17.052Z,58.33
2016-12-07T02:43:44.755Z,58.42
2016-12-07T02:44:12.473Z,58.52
2016-12-07T02:44:40.173Z,58.23
2016-12-07T02:45:07.869Z,57.94
2016-12-07T02:45:35.553Z,58.04
2016-12-07T02:46:03.210Z,56.98
2016-12-07T02:46:30.996Z,57.65
2016-12-07T02:46:58.759Z,57.65
2016-12-07T02:47:26.455Z,57.75
2016-12-07T02:47:54.144Z,58.01
2016-12-07T02:48:21.924Z,58.2
2016-12-07T02:48:49.583Z,58.2
2016-12-07T02:49:17.287Z,58.59
2016-12-07T02:49:44.964Z,58.4
2016-12-07T02:50:12.630Z,58.3
2016-12-07T02:50:40.348Z,58.69
2016-12-07T02:51:08.058Z,58.11
2016-12-07T02:51:35.755Z,59.07
2016-12-07T02:52:03.462Z,58.78
2016-12-07T02:52:31.239Z,58.97
2016-12-07T02:52:58.951Z,58.97
2016-12-07T02:53:26.656Z,58.97
2016-12-07T02:53:54.358Z,59.36
2016-12-07T02:54:22.163Z,58.97
2016-12-07T02:54:49.872Z,59.55
2016-12-07T02:55:17.638Z,59.65
2016-12-07T02:55:45.336Z,59.75
2016-12-07T02:56:13.136Z,60.23
2016-12-07T02:56:40.806Z,60.13
2016-12-07T02:57:08.505Z,60.23
2016-12-07T02:57:36.182Z,59.94
2016-12-07T02:58:03.888Z,60.13
2016-12-07T02:58:31.582Z,60.03
2016-12-07T02:58:59.349Z,59.91
2016-12-07T02:59:27.103Z,60.52
2016-12-07T02:59:54.926Z,60.42
2016-12-07T03:00:22.651Z,60.23
2016-12-07T03:00:50.663Z,60.32
2016-12-07T03:01:18.437Z,60.42
2016-12-07T03:01:46.332Z,60.68
2016-12-07T03:02:14.027Z,60.61
2016-12-07T03:02:41.722Z,60.49
2016-12-07T03:03:09.502Z,60.49
2016-12-07T03:03:37.361Z,61.16
2016-12-07T03:04:05.055Z,61.16
2016-12-07T03:04:32.725Z,61.45
2016-12-07T03:05:00.438Z,61.16
2016-12-07T03:05:28.120Z,61.55
2016-12-07T03:05:55.819Z,61.83
2016-12-07T03:06:23.489Z,61.93
2016-12-07T03:06:51.191Z,62.03
2016-12-07T03:07:18.883Z,61.65
2016-12-07T03:07:46.566Z,61.83
2016-12-07T03:08:14.326Z,61.83
2016-12-07T03:08:42.031Z,61.93
2016-12-07T03:09:09.740Z,61.65
2016-12-07T03:09:37.413Z,61.83
2016-12-07T03:10:05.117Z,62.12
2016-12-07T03:10:32.892Z,61.93
2016-12-07T03:11:00.582Z,61.83
2016-12-07T03:11:28.362Z,62.6
2016-12-07T03:11:56.070Z,62.12
2016-12-07T03:12:23.757Z,62.7
2016-12-07T03:12:51.487Z,62.41
2016-12-07T03:13:19.187Z,62.51
2016-12-07T03:13:46.877Z,63.18
2016-12-07T03:14:14.573Z,62.7
2016-12-07T03:14:42.257Z,63.28
2016-12-07T03:15:10.083Z,63.18
2016-12-07T03:15:37.860Z,63.82
2016-12-07T03:16:05.573Z,63.64
2016-12-07T03:16:33.280Z,63.82
2016-12-07T03:17:00.981Z,64.5
2016-12-07T03:17:28.748Z,64.12
2016-12-07T03:17:56.435Z,64.12
2016-12-07T03:18:24.162Z,64.79
2016-12-07T03:18:51.862Z,64.59
2016-12-07T03:19:19.550Z,64.69
2016-12-07T03:19:47.217Z,65.46
2016-12-07T03:20:14.905Z,65.17
2016-12-07T03:20:42.729Z,65.17
2016-12-07T03:21:10.452Z,64.89
2016-12-07T03:21:38.147Z,65.46
2016-12-07T03:22:05.841Z,65.56
2016-12-07T03:22:33.513Z,65.56
2016-12-07T03:23:01.197Z,65.37
2016-12-07T03:23:28.896Z,65.37
2016-12-07T03:23:56.613Z,65.66
2016-12-07T03:24:24.395Z,65.56
2016-12-07T03:24:52.052Z,65.46
2016-12-07T03:25:19.778Z,65.66
2016-12-07T03:25:47.450Z,65.37
2016-12-07T03:26:15.192Z,65.66
2016-12-07T03:26:42.897Z,65.37
2016-12-07T03:27:10.620Z,65.75
2016-12-07T03:27:38.328Z,65.56
2016-12-07T03:28:06.184Z,65.46
2016-12-07T03:28:33.864Z,65.46
2016-12-07T03:29:01.572Z,65.46
2016-12-07T03:29:29.281Z,65.37
2016-12-07T03:29:56.980Z,65.37
2016-12-07T03:30:24.663Z,65.56
2016-12-07T03:30:52.392Z,65.46
2016-12-07T03:31:20.106Z,65.46
2016-12-07T03:31:47.837Z,65.17
2016-12-07T03:32:15.628Z,65.56
2016-12-07T03:32:43.343Z,65.56
2016-12-07T03:33:11.034Z,65.46
2016-12-07T03:33:38.731Z,65.56
2016-12-07T03:34:06.507Z,65.56
2016-12-07T03:34:34.186Z,65.56
2016-12-07T03:35:02.068Z,65.66
2016-12-07T03:35:29.785Z,65.66
2016-12-07T03:35:57.463Z,65.46
2016-12-07T03:36:25.166Z,65.66
2016-12-07T03:36:52.866Z,65.46
2016-12-07T03:37:20.654Z,65.75
2016-12-07T03:37:48.535Z,66.04
2016-12-07T03:38:16.290Z,65.75
2016-12-07T03:38:44.052Z,65.46
2016-12-07T03:39:11.930Z,65.75
2016-12-07T03:39:39.695Z,65.85
2016-12-07T03:40:07.389Z,65.75
2016-12-07T03:40:35.183Z,65.85
2016-12-07T03:41:02.860Z,65.63
2016-12-07T03:41:30.524Z,65.75
2016-12-07T03:41:58.221Z,65.85
2016-12-07T03:42:25.919Z,65.56
2016-12-07T03:42:53.716Z,65.66
2016-12-07T03:43:21.493Z,65.94
2016-12-07T03:43:49.166Z,65.66
2016-12-07T03:44:16.872Z,65.66
2016-12-07T03:44:44.571Z,65.46
2016-12-07T03:45:12.397Z,65.75
2016-12-07T03:45:40.077Z,65.24
2016-12-07T03:46:07.756Z,65.66
2016-12-07T03:46:35.566Z,65.46
2016-12-07T03:47:03.270Z,65.66
2016-12-07T03:47:30.962Z,65.75
2016-12-07T03:47:58.654Z,65.56
2016-12-07T03:48:26.350Z,65.56
2016-12-07T03:48:54.053Z,65.66
2016-12-07T03:49:21.765Z,65.85
2016-12-07T03:49:49.560Z,65.66
2016-12-07T03:50:17.255Z,65.94
2016-12-07T03:50:44.954Z,65.56
2016-12-07T03:51:12.653Z,65.75
2016-12-07T03:51:40.346Z,65.56
2016-12-07T03:52:08.037Z,65.85
2016-12-07T03:52:35.767Z,66.04
2016-12-07T03:53:03.520Z,65.85
2016-12-07T03:53:31.205Z,65.75
2016-12-07T03:53:58.902Z,65.56
2016-12-07T03:54:26.669Z,65.66
2016-12-07T03:54:54.360Z,65.56
2016-12-07T03:55:22.048Z,65.46
2016-12-07T03:55:49.722Z,65.37
2016-12-07T03:56:17.446Z,65.37
2016-12-07T03:56:45.162Z,65.37
2016-12-07T03:57:12.958Z,65.17
2016-12-07T03:57:40.765Z,65.66
2016-12-07T03:58:08.542Z,65.46
2016-12-07T03:58:36.364Z,65.85
2016-12-07T03:59:04.160Z,65.75
2016-12-07T03:59:31.932Z,65.66
2016-12-07T03:59:59.618Z,65.46
2016-12-07T04:00:27.326Z,65.46
2016-12-07T04:00:55.012Z,66.33
2016-12-07T04:01:22.825Z,66.42
2016-12-07T04:01:50.524Z,66.71
2016-12-07T04:02:18.233Z,66.52
2016-12-07T04:02:45.904Z,66.62
2016-12-07T04:03:13.611Z,66.04
2016-12-07T04:03:41.328Z,66.24
2016-12-07T04:04:09.013Z,66.52
2016-12-07T04:04:36.781Z,66.04
2016-12-07T04:05:04.470Z,66.14
2016-12-07T04:05:32.174Z,66.14
2016-12-07T04:05:59.834Z,66.14
2016-12-07T04:06:27.497Z,66.14
2016-12-07T04:06:55.155Z,65.75
2016-12-07T04:07:22.841Z,65.66
2016-12-07T04:07:50.533Z,65.75
2016-12-07T04:08:18.256Z,65.66
2016-12-07T04:08:45.940Z,65.46
2016-12-07T04:09:13.662Z,65.37
2016-12-07T04:09:41.374Z,65.37
2016-12-07T04:10:09.074Z,65.75
2016-12-07T04:10:36.920Z,65.75
2016-12-07T04:11:04.613Z,65.56
2016-12-07T04:11:32.314Z,64.21
2016-12-07T04:12:00.016Z,64.21
2016-12-07T04:12:27.748Z,64.4
2016-12-07T04:12:55.472Z,64.4
2016-12-07T04:13:23.296Z,64.12
2016-12-07T04:13:50.999Z,63.92
2016-12-07T04:14:18.719Z,63.82
2016-12-07T04:14:46.435Z,63.82
2016-12-07T04:15:14.298Z,64.02
2016-12-07T04:15:41.990Z,63.73
2016-12-07T04:16:09.667Z,63.64
2016-12-07T04:16:37.373Z,63.92
2016-12-07T04:17:05.085Z,64.02
2016-12-07T04:17:32.889Z,64.12
2016-12-07T04:18:00.842Z,64.02
2016-12-07T04:18:28.528Z,63.92
2016-12-07T04:18:56.197Z,63.92
2016-12-07T04:19:23.917Z,63.92
2016-12-07T04:19:51.639Z,64.02
2016-12-07T04:20:19.461Z,64.31
2016-12-07T04:20:47.167Z,64.21
2016-12-07T04:21:14.854Z,64.31
2016-12-07T04:21:42.538Z,64.4
2016-12-07T04:22:10.350Z,63.64
2016-12-07T04:22:38.079Z,64.31
2016-12-07T04:23:05.749Z,64.21
2016-12-07T04:23:33.437Z,64.21
2016-12-07T04:24:01.131Z,64.21
2016-12-07T04:24:28.844Z,64.12
2016-12-07T04:24:56.545Z,64.31
2016-12-07T04:25:24.223Z,64.4
2016-12-07T04:25:51.921Z,64.4
2016-12-07T04:26:19.613Z,64.21
2016-12-07T04:26:47.301Z,64.12
2016-12-07T04:27:15.009Z,63.92
2016-12-07T04:27:42.683Z,63.92
2016-12-07T04:28:10.360Z,63.73
2016-12-07T04:28:38.056Z,63.54
2016-12-07T04:29:05.761Z,64.02
2016-12-07T04:29:33.452Z,64.12
2016-12-07T04:30:01.119Z,63.73
2016-12-07T04:30:28.821Z,63.92
2016-12-07T04:30:56.497Z,64.02
2016-12-07T04:31:24.273Z,63.54
2016-12-07T04:31:51.969Z,63.34
2016-12-07T04:32:19.664Z,63.15
2016-12-07T04:32:47.369Z,63.54
2016-12-07T04:33:15.065Z,63.44
2016-12-07T04:33:42.745Z,63.06
2016-12-07T04:34:10.437Z,63.25
2016-12-07T04:34:38.243Z,63.15
2016-12-07T04:35:06.060Z,62.87
2016-12-07T04:35:33.892Z,63.64
2016-12-07T04:36:01.581Z,63.64
2016-12-07T04:36:29.269Z,62.87
2016-12-07T04:36:57.051Z,63.15
2016-12-07T04:37:24.831Z,63.25
2016-12-07T04:37:52.634Z,62.96
2016-12-07T04:38:20.307Z,62.96
2016-12-07T04:38:48.155Z,63.25
2016-12-07T04:39:15.856Z,62.67
2016-12-07T04:39:43.545Z,62.19
2016-12-07T04:40:11.295Z,62.48
2016-12-07T04:40:38.989Z,63.06
2016-12-07T04:41:06.679Z,62.48
2016-12-07T04:41:34.402Z,63.25
2016-12-07T04:42:02.209Z,63.25
2016-12-07T04:42:29.897Z,63.25
2016-12-07T04:42:57.676Z,63.25
2016-12-07T04:43:25.365Z,62.57
2016-12-07T04:43:53.050Z,63.15
2016-12-07T04:44:20.943Z,62.67
2016-12-07T04:44:48.617Z,62.96
2016-12-07T04:45:16.309Z,63.25
2016-12-07T04:45:43.982Z,63.15
2016-12-07T04:46:11.679Z,63.25
2016-12-07T04:46:39.467Z,62.57
2016-12-07T04:47:07.158Z,63.15
2016-12-07T04:47:34.961Z,63.06
2016-12-07T04:48:02.678Z,62.96
2016-12-07T04:48:30.456Z,63.34
2016-12-07T04:48:58.250Z,63.64
2016-12-07T04:49:25.963Z,63.64
2016-12-07T04:49:53.639Z,63.73
2016-12-07T04:50:21.459Z,63.73
2016-12-07T04:50:49.153Z,63.73
2016-12-07T04:51:16.856Z,63.73
2016-12-07T04:51:44.634Z,63.64
2016-12-07T04:52:12.332Z,63.92
2016-12-07T04:52:40.127Z,63.64
2016-12-07T04:53:07.802Z,63.64
2016-12-07T04:53:35.495Z,63.92
2016-12-07T04:54:03.211Z,63.73
2016-12-07T04:54:30.995Z,64.02
2016-12-07T04:54:58.700Z,63.73
2016-12-07T04:55:26.409Z,64.02
2016-12-07T04:55:54.119Z,63.73
2016-12-07T04:56:21.776Z,64.02
2016-12-07T04:56:49.563Z,63.92
2016-12-07T04:57:17.247Z,64.12
2016-12-07T04:57:44.954Z,64.12
2016-12-07T04:58:12.624Z,63.73
2016-12-07T04:58:40.336Z,63.92
2016-12-07T04:59:08.143Z,63.92
2016-12-07T04:59:35.953Z,64.31
2016-12-07T05:00:03.645Z,64.5
2016-12-07T05:00:31.329Z,64.21
2016-12-07T05:00:59.011Z,64.59
2016-12-07T05:01:26.694Z,64.21
2016-12-07T05:01:54.402Z,64.12
2016-12-07T05:02:22.127Z,64.08
2016-12-07T05:02:49.840Z,64.12
2016-12-07T05:03:17.536Z,64.21
2016-12-07T05:03:45.259Z,64.31
2016-12-07T05:04:12.951Z,64.5
2016-12-07T05:04:40.656Z,64.5
2016-12-07T05:05:08.345Z,64.28
2016-12-07T05:05:36.039Z,64.31
2016-12-07T05:06:03.726Z,64.59
2016-12-07T05:06:31.418Z,64.5
2016-12-07T05:06:59.219Z,64.59
2016-12-07T05:07:26.892Z,64.59
2016-12-07T05:07:54.585Z,64.79
2016-12-07T05:08:22.272Z,64.69
2016-12-07T05:08:50.043Z,64.89
2016-12-07T05:09:17.751Z,64.79
2016-12-07T05:09:45.427Z,64.59
2016-12-07T05:10:13.320Z,64.69
2016-12-07T05:10:41.091Z,64.79
2016-12-07T05:11:08.797Z,64.89
2016-12-07T05:11:36.502Z,64.89
2016-12-07T05:12:04.187Z,64.98
2016-12-07T05:12:31.857Z,65.56
2016-12-07T05:12:59.583Z,65.66
2016-12-07T05:13:27.325Z,65.85
2016-12-07T05:13:55.015Z,65.46
2016-12-07T05:14:22.701Z,65.37
2016-12-07T05:14:50.397Z,65.53
2016-12-07T05:15:18.233Z,65.81
2016-12-07T05:15:45.886Z,66.39
2016-12-07T05:16:13.587Z,66.1
2016-12-07T05:16:41.427Z,66.2
2016-12-07T05:17:09.133Z,66.49
2016-12-07T05:17:36.839Z,66.68
2016-12-07T05:18:04.518Z,66.97
2016-12-07T05:18:32.414Z,67.26
2016-12-07T05:19:00.104Z,67.16
2016-12-07T05:19:27.807Z,66.97
2016-12-07T05:19:55.482Z,67.07
2016-12-07T05:20:23.371Z,67.93
2016-12-07T05:20:51.179Z,67.65
2016-12-07T05:21:18.946Z,67.55
2016-12-07T05:21:46.618Z,67.65
2016-12-07T05:22:14.294Z,67.83
2016-12-07T05:22:41.973Z,67.74
2016-12-07T05:23:09.669Z,67.93
2016-12-07T05:23:37.349Z,67.55
2016-12-07T05:24:05.035Z,67.65
2016-12-07T05:24:32.720Z,67.74
2016-12-07T05:25:00.443Z,67.74
2016-12-07T05:25:28.135Z,67.65
2016-12-07T05:25:55.927Z,67.55
2016-12-07T05:26:23.605Z,67.74
2016-12-07T05:26:51.329Z,67.45
2016-12-07T05:27:19.043Z,68.32
2016-12-07T05:27:46.849Z,68.03
2016-12-07T05:28:14.563Z,67.93
2016-12-07T05:28:42.269Z,68.03
2016-12-07T05:29:09.956Z,68.03
2016-12-07T05:29:37.652Z,68.13
2016-12-07T05:30:05.364Z,68.13
2016-12-07T05:30:33.041Z,68.51
2016-12-07T05:31:00.721Z,68.6
2016-12-07T05:31:28.428Z,68.13
2016-12-07T05:31:56.130Z,68.51
2016-12-07T05:32:23.849Z,68.22
2016-12-07T05:32:51.534Z,68.51
2016-12-07T05:33:19.219Z,68.6
2016-12-07T05:33:46.883Z,68.32
2016-12-07T05:34:14.573Z,68.41
2016-12-07T05:34:42.264Z,68.6
2016-12-07T05:35:09.926Z,68.03
2016-12-07T05:35:37.627Z,68.51
2016-12-07T05:36:05.320Z,68.22
2016-12-07T05:36:33.004Z,68.41
2016-12-07T05:37:00.725Z,68.22
2016-12-07T05:37:28.634Z,68.22
2016-12-07T05:37:56.413Z,68.41
2016-12-07T05:38:24.119Z,68.03
2016-12-07T05:38:51.908Z,68.13
2016-12-07T05:39:19.597Z,68.22
2016-12-07T05:39:47.308Z,68.7
2016-12-07T05:40:15.002Z,68.41
2016-12-07T05:40:42.717Z,68.32
2016-12-07T05:41:10.413Z,68.41
2016-12-07T05:41:38.084Z,68.41
2016-12-07T05:42:05.801Z,68.76
2016-12-07T05:42:33.570Z,68.96
2016-12-07T05:43:01.231Z,68.76
2016-12-07T05:43:28.921Z,69.18
2016-12-07T05:43:56.603Z,69.06
2016-12-07T05:44:24.395Z,69.15
2016-12-07T05:44:52.101Z,69.24
2016-12-07T05:45:19.784Z,68.96
2016-12-07T05:45:47.459Z,69.06
2016-12-07T05:46:15.155Z,69.15
2016-12-07T05:46:42.875Z,68.86
2016-12-07T05:47:10.577Z,69.34
2016-12-07T05:47:38.281Z,69.06
2016-12-07T05:48:05.946Z,69.15
2016-12-07T05:48:33.626Z,69.24
2016-12-07T05:49:01.314Z,69.06
2016-12-07T05:49:28.989Z,69.63
2016-12-07T05:49:56.675Z,69.53
2016-12-07T05:50:24.362Z,69.44
2016-12-07T05:50:52.113Z,69.63
2016-12-07T05:51:19.818Z,70.01
2016-12-07T05:51:47.474Z,69.92
2016-12-07T05:52:15.185Z,69.73
2016-12-07T05:52:42.868Z,70.01
2016-12-07T05:53:10.532Z,70.11
2016-12-07T05:53:38.224Z,70.01
2016-12-07T05:54:06.140Z,70.01
2016-12-07T05:54:33.806Z,70.01
2016-12-07T05:55:01.488Z,69.92
2016-12-07T05:55:29.280Z,70.01
2016-12-07T05:55:56.996Z,70.11
2016-12-07T05:56:24.680Z,70.3
2016-12-07T05:56:52.372Z,70.4
2016-12-07T05:57:20.067Z,70.4
2016-12-07T05:57:47.858Z,70.11
2016-12-07T05:58:15.516Z,69.92